Needmore, PA (17238)

3:11 PM EST on January 30, 2015 (GMT -0500)
Cito | Change Station
CLOSE
Current Station
Personal Weather Station
Location: McConnellsburg, PA
Elevation: 889 ft
Nearby Weather Stations

Elev 889 ft 39.88 °N, 78.02 °W | Updated 3 seconds ago

Mostly Cloudy
Mostly Cloudy
27.5 °F
Feels Like 17 °F
N
12.1
Wind Variable Wind from SW
Gusts 22.8 mph

Today
High -- | Low -- °F
--% Chance of Precip.
Yesterday
High -- | Low -- °F
Precip. -- in
7:22 AM 5:29 PM
Waxing Gibbous, 85% visible
Pressure 30.14 in
Visibility 10.0 miles
Clouds Overcast 4000 ft
Windchill 17 °F
Dew Point -22 °F
Humidity 10%
Rainfall 0.00 in
Snow Depth Not available.
UV 1 out of 12
Pollen .10 out of 12
Air Quality Not available.
Flu Activity Not available.
METAR KHGR 301953Z 31022G27KT 10SM OVC040 M02/M10 A3009 RMK AO2 PK WND 31028/1930 SLP207 T10171100

More Conditions Fewer Conditions

Pressure 30.14 in
Visibility 10.0 miles
Clouds Overcast 4000 ft
Windchill 17 °F
Dew Point -22 °F
Humidity 10%
Rainfall 0.00 in
Snow Depth Not available.
UV 1 out of 12
Pollen .10 out of 12
Air Quality Not available.
Flu Activity Not available.
METAR KHGR 301953Z 31022G27KT 10SM OVC040 M02/M10 A3009 RMK AO2 PK WND 31028/1930 SLP207 T10171100

More Conditions Fewer Conditions

10-Day Weather Forecast

Almanac

Astronomy

Jan. 30, 2015 Rise Set
Actual Time
Civil Twilight
Nautical Twilight
Astronomical Twilight
Moon
Length of Visible Light
Length of Day
Tomorrow will be .
, % of the Moon is Illuminated

Today's Extremes

State Highs State Lows

Community

WunderPhotos

Upload Photos

1,791,883 photos uploaded!

WunderBlogs® & News

Nearby

Air Quality

  Air Quality AQ Index Pollutant
Not available.

Snow Depth

Station Depth Elevation

Earthquake Activity

City Distance Mag. Time & Date
Minimum magnitude displayed is 2.5.

Coastal Water Temperatures

Place Temperature

Nearby Weather Stations